Time;durP1;ratioP1;P1;durP2;ratioP2;P2;SDS_P1;SDS_P2;PMS_P1;PMS_P2;Temp;Humidity;BMP_temperature;BMP_pressure;BME280_temperature;BME280_humidity;BME280_pressure;Samples;Min_cycle;Max_cycle;Signal;HPM_P1;HPM_P2
2023/01/09 00:01:20;;;;;;;680.77;302.10;;;;;;;;;;4968643;28;20552;-53
2023/01/09 00:03:47;;;;;;;770.63;344.03;;;;;;;;;;4961722;28;20212;-53
2023/01/09 00:06:13;;;;;;;689.17;294.93;;;;;;;;;;4951326;28;20389;-53
2023/01/09 00:08:39;;;;;;;705.27;304.00;;;;;;;;;;4992106;28;20217;-52
2023/01/09 00:11:06;;;;;;;625.00;260.87;;;;;;;;;;4987338;28;20625;-53
2023/01/09 00:13:32;;;;;;;688.27;298.30;;;;;;;;;;4988150;28;20208;-53
2023/01/09 00:15:59;;;;;;;666.83;279.23;;;;;;;;;;4978083;28;20716;-52
2023/01/09 00:18:26;;;;;;;595.23;253.27;;;;;;;;;;4990597;28;20216;-52
2023/01/09 00:20:52;;;;;;;695.17;305.23;;;;;;;;;;4996245;28;20224;-52
2023/01/09 00:23:19;;;;;;;661.30;284.13;;;;;;;;;;4980618;28;20260;-53
2023/01/09 00:25:45;;;;;;;660.43;282.70;;;;;;;;;;4985666;28;20381;-53
2023/01/09 00:28:12;;;;;;;683.53;292.23;;;;;;;;;;4992254;28;20706;-53
2023/01/09 00:30:38;;;;;;;635.47;272.43;;;;;;;;;;4990299;28;20223;-53
2023/01/09 00:33:05;;;;;;;602.57;257.20;;;;;;;;;;4982817;28;20274;-52
2023/01/09 00:35:31;;;;;;;558.97;241.57;;;;;;;;;;4955804;28;20466;-53
2023/01/09 00:37:57;;;;;;;643.47;269.97;;;;;;;;;;4990296;28;20310;-53
2023/01/09 00:40:24;;;;;;;569.63;238.27;;;;;;;;;;4974484;28;20200;-53
2023/01/09 00:42:53;;;;;;;747.90;332.23;;;;;;;;;;4975470;28;20259;-52
2023/01/09 00:45:27;;;;;;;724.83;317.93;;;;;;;;;;4964312;28;20227;-52
2023/01/09 00:47:54;;;;;;;672.93;292.13;;;;;;;;;;4948849;28;20216;-53
2023/01/09 00:50:22;;;;;;;800.50;359.70;;;;;;;;;;4990358;28;20219;-51
2023/01/09 00:52:50;;;;;;;682.13;300.20;;;;;;;;;;4973584;28;20226;-53
2023/01/09 00:55:16;;;;;;;728.20;306.57;;;;;;;;;;5004801;28;20247;-53
2023/01/09 00:57:43;;;;;;;805.63;357.23;;;;;;;;;;4984446;28;20250;-53
2023/01/09 01:00:10;;;;;;;801.67;365.30;;;;;;;;;;4992842;28;20417;-52
2023/01/09 01:02:36;;;;;;;711.10;317.43;;;;;;;;;;4976133;28;20299;-53
2023/01/09 01:07:47;;;;;;;788.27;344.47;;;;;;;;;;5002013;28;20254;-52
2023/01/09 01:10:22;;;;;;;702.27;302.27;;;;;;;;;;4977715;28;20184;-52
2023/01/09 01:12:48;;;;;;;738.37;323.43;;;;;;;;;;4984533;28;20224;-52
2023/01/09 01:15:14;;;;;;;715.60;309.33;;;;;;;;;;4986344;28;20243;-53
2023/01/09 01:17:41;;;;;;;646.83;280.40;;;;;;;;;;4987023;28;21247;-52
2023/01/09 01:20:10;;;;;;;667.07;287.50;;;;;;;;;;4976384;28;20243;-54
2023/01/09 01:22:37;;;;;;;626.40;261.13;;;;;;;;;;4992360;28;20235;-53
2023/01/09 01:25:04;;;;;;;631.93;262.03;;;;;;;;;;4993044;28;20306;-53
2023/01/09 01:27:31;;;;;;;578.37;243.50;;;;;;;;;;5001087;28;20313;-53
2023/01/09 01:29:57;;;;;;;733.27;319.13;;;;;;;;;;4992859;28;20946;-52
2023/01/09 01:32:24;;;;;;;705.03;306.07;;;;;;;;;;4980465;28;20275;-52
2023/01/09 01:34:50;;;;;;;715.07;305.03;;;;;;;;;;4983444;28;20563;-52
2023/01/09 01:37:17;;;;;;;682.20;290.53;;;;;;;;;;4970020;28;20231;-53
2023/01/09 01:39:43;;;;;;;675.03;285.53;;;;;;;;;;4987181;28;20285;-53
2023/01/09 01:42:12;;;;;;;813.23;370.20;;;;;;;;;;4990047;28;20223;-53
2023/01/09 01:44:57;;;;;;;668.87;285.43;;;;;;;;;;4974941;28;20604;-52
2023/01/09 01:47:27;;;;;;;644.70;270.80;;;;;;;;;;4992494;28;20229;-53
2023/01/09 01:49:53;;;;;;;643.43;268.07;;;;;;;;;;4964651;28;20191;-53
2023/01/09 01:52:20;;;;;;;764.87;330.90;;;;;;;;;;4994381;28;21206;-52
2023/01/09 01:54:47;;;;;;;680.53;285.20;;;;;;;;;;4986978;28;21906;-52
2023/01/09 01:57:14;;;;;;;720.87;307.83;;;;;;;;;;5005030;28;20281;-52
2023/01/09 01:59:43;;;;;;;678.37;281.70;;;;;;;;;;5006778;28;20672;-52
2023/01/09 02:02:09;;;;;;;633.70;265.93;;;;;;;;;;4999045;28;20235;-53
2023/01/09 02:04:38;;;;;;;637.77;262.57;;;;;;;;;;5005061;28;20238;-51
2023/01/09 02:07:07;;;;;;;712.73;308.20;;;;;;;;;;5001889;28;20188;-52
2023/01/09 02:09:33;;;;;;;675.83;280.00;;;;;;;;;;4993751;28;20626;-52
2023/01/09 02:12:00;;;;;;;654.20;282.63;;;;;;;;;;4973462;28;20581;-52
2023/01/09 02:14:28;;;;;;;638.67;270.10;;;;;;;;;;4989564;28;20300;-52
2023/01/09 02:17:19;;;;;;;579.00;242.93;;;;;;;;;;4972981;28;20219;-52
2023/01/09 02:20:01;;;;;;;644.57;272.43;;;;;;;;;;4989775;28;20214;-51
2023/01/09 02:22:42;;;;;;;639.57;268.90;;;;;;;;;;4974184;28;20204;-52
2023/01/09 02:25:27;;;;;;;620.10;260.83;;;;;;;;;;4997083;28;20908;-53
2023/01/09 02:28:12;;;;;;;747.10;323.57;;;;;;;;;;4980846;28;21124;-52
2023/01/09 02:30:51;;;;;;;630.10;262.00;;;;;;;;;;4986312;28;20591;-53
2023/01/09 02:33:17;;;;;;;666.40;292.37;;;;;;;;;;4992859;28;20294;-53
2023/01/09 02:36:03;;;;;;;605.37;266.40;;;;;;;;;;4971947;28;20727;-51
2023/01/09 02:38:34;;;;;;;683.03;293.13;;;;;;;;;;4975149;28;20224;-52
2023/01/09 02:41:16;;;;;;;708.17;299.60;;;;;;;;;;4989810;28;20535;-53
2023/01/09 02:43:42;;;;;;;699.97;304.13;;;;;;;;;;4977924;28;20246;-52
2023/01/09 02:46:18;;;;;;;601.90;255.00;;;;;;;;;;4988110;28;20995;-55
2023/01/09 02:48:45;;;;;;;589.63;248.90;;;;;;;;;;5040131;23;20600;-54
2023/01/09 02:51:25;;;;;;;608.53;266.30;;;;;;;;;;5032727;28;20263;-53
2023/01/09 02:54:12;;;;;;;529.33;221.47;;;;;;;;;;5040659;28;20234;-54
2023/01/09 02:56:50;;;;;;;590.77;259.47;;;;;;;;;;5036762;28;20566;-52
2023/01/09 02:59:26;;;;;;;633.40;273.20;;;;;;;;;;5037558;28;20893;-54
2023/01/09 03:01:56;;;;;;;530.70;223.20;;;;;;;;;;5030889;28;20204;-54
2023/01/09 03:04:23;;;;;;;528.77;224.17;;;;;;;;;;5039531;28;20573;-53
2023/01/09 03:06:58;;;;;;;669.97;283.73;;;;;;;;;;5036662;28;20546;-54
2023/01/09 03:09:26;;;;;;;530.17;227.23;;;;;;;;;;5037175;28;20666;-53
2023/01/09 03:11:55;;;;;;;711.40;304.17;;;;;;;;;;5032799;28;20241;-53
2023/01/09 03:14:23;;;;;;;560.47;240.47;;;;;;;;;;5034702;28;20226;-56
2023/01/09 03:16:53;;;;;;;548.60;231.50;;;;;;;;;;5041620;28;20402;-54
2023/01/09 03:19:21;;;;;;;540.90;222.77;;;;;;;;;;5040182;28;20241;-54
2023/01/09 03:21:48;;;;;;;673.63;293.13;;;;;;;;;;5037550;28;20317;-52
2023/01/09 03:24:15;;;;;;;671.20;286.83;;;;;;;;;;5036436;28;20242;-55
2023/01/09 03:26:42;;;;;;;653.67;288.10;;;;;;;;;;5037233;28;20665;-54
2023/01/09 03:29:08;;;;;;;627.17;260.90;;;;;;;;;;5033278;28;20624;-54
2023/01/09 03:31:35;;;;;;;552.83;234.53;;;;;;;;;;5034987;28;20518;-55
2023/01/09 03:34:01;;;;;;;602.03;254.27;;;;;;;;;;5033214;28;20298;-54
2023/01/09 03:36:27;;;;;;;705.07;291.60;;;;;;;;;;5038608;28;20212;-54
2023/01/09 03:38:54;;;;;;;513.10;218.73;;;;;;;;;;5040499;28;20444;-55
2023/01/09 03:41:21;;;;;;;622.03;268.73;;;;;;;;;;5020217;28;20227;-54
2023/01/09 03:43:47;;;;;;;655.33;282.57;;;;;;;;;;5038075;28;20252;-53
2023/01/09 03:46:14;;;;;;;584.87;256.97;;;;;;;;;;5019571;28;20473;-55
2023/01/09 03:48:41;;;;;;;610.87;269.00;;;;;;;;;;5038731;28;20816;-55
2023/01/09 03:51:08;;;;;;;653.83;278.23;;;;;;;;;;5032054;28;20659;-54
2023/01/09 03:53:34;;;;;;;527.97;227.60;;;;;;;;;;5034917;28;20242;-53
2023/01/09 03:56:01;;;;;;;594.40;262.37;;;;;;;;;;5030101;28;20226;-54
2023/01/09 03:58:27;;;;;;;550.40;237.27;;;;;;;;;;5038178;28;20184;-54
2023/01/09 04:01:00;;;;;;;612.33;256.83;;;;;;;;;;5029987;28;20318;-54
2023/01/09 04:03:26;;;;;;;535.40;234.73;;;;;;;;;;5034312;28;20523;-53
2023/01/09 04:05:53;;;;;;;648.10;280.80;;;;;;;;;;5039223;28;20230;-54
2023/01/09 04:08:19;;;;;;;515.60;222.97;;;;;;;;;;5041779;28;20357;-53
2023/01/09 04:10:46;;;;;;;574.43;242.40;;;;;;;;;;5033012;28;20202;-55
2023/01/09 04:13:12;;;;;;;545.43;234.23;;;;;;;;;;5036601;28;20697;-53
2023/01/09 04:15:38;;;;;;;563.80;241.70;;;;;;;;;;5028520;28;20219;-52
2023/01/09 04:18:05;;;;;;;568.83;241.30;;;;;;;;;;5035958;28;20649;-56
2023/01/09 04:20:42;;;;;;;602.40;271.60;;;;;;;;;;4987221;28;20214;-57
2023/01/09 04:23:09;;;;;;;691.10;316.10;;;;;;;;;;5001935;28;20275;-57
2023/01/09 04:25:35;;;;;;;634.83;278.50;;;;;;;;;;5010674;28;20195;-59
2023/01/09 04:28:03;;;;;;;695.07;312.43;;;;;;;;;;5011720;28;20195;-56
2023/01/09 04:30:29;;;;;;;650.77;293.27;;;;;;;;;;4983172;28;20292;-62
2023/01/09 04:32:55;;;;;;;673.30;290.83;;;;;;;;;;5006387;28;20226;-56
2023/01/09 04:35:22;;;;;;;571.70;253.90;;;;;;;;;;5014925;28;20215;-57
2023/01/09 04:37:48;;;;;;;637.17;274.60;;;;;;;;;;4999655;28;20402;-57
2023/01/09 04:40:15;;;;;;;749.13;333.13;;;;;;;;;;5008279;28;20279;-57
2023/01/09 04:42:42;;;;;;;703.10;299.47;;;;;;;;;;5012744;28;20244;-56
2023/01/09 04:45:14;;;;;;;718.20;323.07;;;;;;;;;;5002078;28;20261;-57
2023/01/09 04:47:40;;;;;;;607.43;269.03;;;;;;;;;;5021525;28;20215;-59
2023/01/09 04:50:06;;;;;;;707.50;313.40;;;;;;;;;;5002420;28;20239;-57
2023/01/09 04:52:33;;;;;;;635.80;275.03;;;;;;;;;;5005122;28;20367;-57
2023/01/09 04:55:00;;;;;;;711.73;326.83;;;;;;;;;;5009218;28;20518;-57
2023/01/09 04:57:26;;;;;;;652.13;288.93;;;;;;;;;;5004347;28;20219;-56
2023/01/09 04:59:53;;;;;;;788.20;354.57;;;;;;;;;;5008954;28;20276;-57
2023/01/09 05:02:19;;;;;;;669.57;286.17;;;;;;;;;;5001775;28;20678;-57
2023/01/09 05:04:45;;;;;;;673.50;287.83;;;;;;;;;;5008642;28;20296;-56
2023/01/09 05:07:12;;;;;;;769.93;346.10;;;;;;;;;;5008218;28;21899;-57
2023/01/09 05:09:38;;;;;;;726.87;325.70;;;;;;;;;;4995657;28;20208;-57
2023/01/09 05:12:05;;;;;;;598.67;262.80;;;;;;;;;;4993188;28;20424;-56
2023/01/09 05:14:32;;;;;;;619.30;277.80;;;;;;;;;;5001637;28;20320;-56
2023/01/09 05:16:58;;;;;;;742.40;325.40;;;;;;;;;;5000822;28;20220;-57
2023/01/09 05:19:25;;;;;;;625.50;277.77;;;;;;;;;;5010341;28;20277;-57
2023/01/09 05:21:52;;;;;;;729.33;324.00;;;;;;;;;;4990731;28;20230;-57
2023/01/09 05:24:18;;;;;;;728.40;321.23;;;;;;;;;;5007448;28;20569;-57
2023/01/09 05:26:44;;;;;;;630.20;279.40;;;;;;;;;;5011765;28;20798;-57
2023/01/09 05:29:11;;;;;;;576.53;249.53;;;;;;;;;;5018150;28;20360;-57
2023/01/09 05:31:38;;;;;;;630.47;264.87;;;;;;;;;;4995188;28;20211;-57
2023/01/09 05:34:05;;;;;;;706.83;307.00;;;;;;;;;;4996634;28;21754;-57
2023/01/09 05:36:31;;;;;;;715.00;317.30;;;;;;;;;;5000583;28;20355;-57
2023/01/09 05:38:59;;;;;;;764.87;337.40;;;;;;;;;;5005463;28;20660;-57
2023/01/09 05:41:25;;;;;;;648.27;286.50;;;;;;;;;;4990531;28;20225;-57
2023/01/09 05:43:51;;;;;;;614.57;269.83;;;;;;;;;;5002437;28;20188;-57
2023/01/09 05:46:18;;;;;;;627.73;266.07;;;;;;;;;;5020390;28;20192;-57
2023/01/09 05:48:45;;;;;;;631.37;268.37;;;;;;;;;;5022788;28;20227;-57
2023/01/09 05:51:11;;;;;;;643.17;282.20;;;;;;;;;;5019139;28;20276;-57
2023/01/09 05:53:38;;;;;;;662.37;277.33;;;;;;;;;;4996393;28;20310;-57
2023/01/09 05:56:04;;;;;;;714.47;298.77;;;;;;;;;;5023877;28;20750;-56
2023/01/09 05:58:30;;;;;;;661.87;281.80;;;;;;;;;;5016924;28;20223;-58
2023/01/09 06:00:58;;;;;;;700.67;303.27;;;;;;;;;;5005583;28;20219;-57
2023/01/09 06:03:24;;;;;;;688.17;292.70;;;;;;;;;;4996123;28;20284;-56
2023/01/09 06:05:50;;;;;;;768.27;324.30;;;;;;;;;;5008177;28;20770;-56
2023/01/09 06:08:16;;;;;;;664.27;276.20;;;;;;;;;;5016575;28;20367;-56
2023/01/09 06:10:42;;;;;;;631.23;259.63;;;;;;;;;;5011338;28;20283;-56
2023/01/09 06:13:09;;;;;;;733.43;309.33;;;;;;;;;;5024259;28;20286;-56
2023/01/09 06:15:35;;;;;;;673.23;287.17;;;;;;;;;;5008940;28;20906;-57
2023/01/09 06:18:03;;;;;;;713.70;303.17;;;;;;;;;;5020877;28;20214;-56
2023/01/09 06:20:29;;;;;;;759.50;330.30;;;;;;;;;;5003687;28;20310;-56
2023/01/09 06:22:56;;;;;;;709.70;286.17;;;;;;;;;;4997861;28;20476;-57
2023/01/09 06:25:22;;;;;;;618.23;259.23;;;;;;;;;;5026340;28;20242;-57
2023/01/09 06:27:50;;;;;;;734.27;300.73;;;;;;;;;;5014364;28;20223;-56
2023/01/09 06:30:18;;;;;;;806.30;345.07;;;;;;;;;;5004892;28;20273;-56
2023/01/09 06:32:47;;;;;;;842.77;379.30;;;;;;;;;;4973051;28;20215;-56
2023/01/09 06:35:19;;;;;;;805.43;334.60;;;;;;;;;;4991447;28;21418;-58
2023/01/09 06:37:49;;;;;;;732.93;305.67;;;;;;;;;;5001620;28;20282;-56
2023/01/09 06:40:16;;;;;;;836.00;353.93;;;;;;;;;;5003075;28;20214;-57
2023/01/09 06:42:43;;;;;;;825.33;361.20;;;;;;;;;;4997086;28;20818;-55
2023/01/09 06:45:09;;;;;;;803.43;340.43;;;;;;;;;;4988612;28;20391;-53
2023/01/09 06:47:35;;;;;;;789.53;351.57;;;;;;;;;;4960255;28;21683;-54
2023/01/09 06:50:11;;;;;;;770.40;329.90;;;;;;;;;;4994231;28;20369;-55
2023/01/09 06:52:38;;;;;;;838.67;355.23;;;;;;;;;;4997681;28;20211;-57
2023/01/09 06:55:17;;;;;;;664.50;285.63;;;;;;;;;;5018193;28;20305;-57
2023/01/09 06:57:43;;;;;;;828.33;341.73;;;;;;;;;;4999705;28;20282;-57
2023/01/09 07:00:10;;;;;;;849.50;375.37;;;;;;;;;;4988189;28;20502;-55
2023/01/09 07:02:37;;;;;;;690.90;297.13;;;;;;;;;;5000381;28;20616;-55
2023/01/09 07:05:07;;;;;;;677.97;268.53;;;;;;;;;;5001458;28;20220;-56
2023/01/09 07:07:34;;;;;;;759.17;329.87;;;;;;;;;;4988634;28;20199;-55
2023/01/09 07:10:01;;;;;;;822.03;352.07;;;;;;;;;;4984948;28;20215;-57
2023/01/09 07:12:27;;;;;;;779.10;310.17;;;;;;;;;;5005567;28;20232;-55
2023/01/09 07:14:54;;;;;;;830.73;364.70;;;;;;;;;;4985629;28;20211;-57
2023/01/09 07:17:23;;;;;;;817.77;341.77;;;;;;;;;;5008381;28;20244;-56
2023/01/09 07:20:04;;;;;;;850.57;361.50;;;;;;;;;;4984407;28;20248;-56
2023/01/09 07:22:31;;;;;;;808.80;358.40;;;;;;;;;;4995079;28;20219;-56
2023/01/09 07:24:57;;;;;;;806.67;339.00;;;;;;;;;;4999217;28;20242;-55
2023/01/09 07:27:30;;;;;;;857.10;367.20;;;;;;;;;;5006203;28;20243;-56
2023/01/09 07:29:59;;;;;;;865.67;358.17;;;;;;;;;;5000067;28;20215;-58
2023/01/09 07:32:26;;;;;;;851.30;371.17;;;;;;;;;;4962610;28;20324;-56
2023/01/09 07:34:55;;;;;;;741.40;319.70;;;;;;;;;;4992090;28;21042;-55
2023/01/09 07:37:22;;;;;;;958.17;400.83;;;;;;;;;;4991817;28;20693;-55
2023/01/09 07:39:48;;;;;;;864.00;372.40;;;;;;;;;;4964936;28;20289;-54
2023/01/09 07:42:15;;;;;;;840.33;361.03;;;;;;;;;;4979311;28;20238;-56
2023/01/09 07:44:42;;;;;;;881.57;380.23;;;;;;;;;;4978310;28;20348;-56
2023/01/09 07:47:11;;;;;;;808.13;345.57;;;;;;;;;;4983775;28;24039;-58
2023/01/09 07:49:37;;;;;;;763.57;316.73;;;;;;;;;;4988750;28;20188;-56
2023/01/09 07:52:04;;;;;;;845.33;361.43;;;;;;;;;;5007447;28;20783;-56
2023/01/09 07:54:31;;;;;;;799.83;325.00;;;;;;;;;;4992039;28;20630;-56
2023/01/09 07:56:57;;;;;;;745.20;307.67;;;;;;;;;;5011923;28;20341;-55
2023/01/09 07:59:25;;;;;;;650.20;271.10;;;;;;;;;;5028082;28;20397;-55
2023/01/09 08:01:52;;;;;;;875.07;358.50;;;;;;;;;;5027050;28;20206;-56
2023/01/09 08:04:18;;;;;;;786.00;314.47;;;;;;;;;;5031261;28;20255;-56
2023/01/09 08:06:46;;;;;;;811.53;337.23;;;;;;;;;;5026014;28;20349;-56
2023/01/09 08:09:13;;;;;;;740.23;301.33;;;;;;;;;;5026221;28;20264;-55
2023/01/09 08:11:43;;;;;;;797.43;321.00;;;;;;;;;;5028546;28;20770;-55
2023/01/09 08:14:09;;;;;;;787.27;328.47;;;;;;;;;;5026766;28;20644;-56
2023/01/09 08:16:35;;;;;;;795.10;324.47;;;;;;;;;;5029659;28;20643;-56
2023/01/09 08:19:04;;;;;;;674.70;281.47;;;;;;;;;;5032218;28;20792;-56
2023/01/09 08:21:31;;;;;;;818.17;336.70;;;;;;;;;;5023887;28;20247;-56
2023/01/09 08:23:57;;;;;;;731.43;285.67;;;;;;;;;;5030658;28;20280;-55
2023/01/09 08:26:26;;;;;;;735.50;298.77;;;;;;;;;;5031007;28;20300;-56
2023/01/09 08:28:53;;;;;;;800.27;341.43;;;;;;;;;;5018147;28;20566;-56
2023/01/09 08:31:24;;;;;;;820.90;320.03;;;;;;;;;;5018207;28;20459;-55
2023/01/09 08:33:51;;;;;;;758.60;311.43;;;;;;;;;;5009321;28;20218;-55
2023/01/09 08:36:20;;;;;;;830.10;347.27;;;;;;;;;;4993293;28;20225;-56
2023/01/09 08:38:46;;;;;;;862.67;364.03;;;;;;;;;;5004990;28;20246;-56
2023/01/09 08:47:05;;;;;;;779.30;330.40;;;;;;;;;;4990349;28;20198;-56
2023/01/09 08:49:35;;;;;;;815.40;274.93;;;;;;;;;;5012374;22;20673;-51
2023/01/09 08:52:02;;;;;;;837.47;370.20;;;;;;;;;;5005119;28;20380;-51
2023/01/09 08:54:29;;;;;;;722.27;320.77;;;;;;;;;;5019660;28;21510;-51
2023/01/09 08:56:55;;;;;;;718.37;308.57;;;;;;;;;;5020405;28;20674;-51
2023/01/09 08:59:22;;;;;;;785.37;351.80;;;;;;;;;;5016900;28;20264;-50
2023/01/09 09:01:48;;;;;;;753.10;334.57;;;;;;;;;;5014563;28;20251;-51
2023/01/09 09:04:18;;;;;;;731.00;323.80;;;;;;;;;;5002383;28;20250;-51
2023/01/09 09:06:44;;;;;;;792.47;353.03;;;;;;;;;;4993913;28;20590;-51
2023/01/09 09:09:10;;;;;;;731.27;315.10;;;;;;;;;;5004928;28;20484;-51
2023/01/09 09:11:39;;;;;;;668.37;279.40;;;;;;;;;;4987478;28;20315;-51
2023/01/09 09:16:50;;;;;;;771.30;351.40;;;;;;;;;;5011416;28;20273;-51
2023/01/09 09:19:17;;;;;;;875.43;400.60;;;;;;;;;;4996441;28;20191;-50
2023/01/09 09:21:44;;;;;;;748.47;327.47;;;;;;;;;;4981671;28;20337;-51
2023/01/09 09:24:11;;;;;;;902.83;406.80;;;;;;;;;;4962983;28;20235;-51
2023/01/09 09:26:37;;;;;;;701.40;314.53;;;;;;;;;;5000050;28;20284;-51
2023/01/09 09:29:03;;;;;;;743.40;333.80;;;;;;;;;;5013794;28;20250;-51
2023/01/09 09:31:30;;;;;;;797.53;349.03;;;;;;;;;;4983394;28;20292;-51
2023/01/09 09:33:57;;;;;;;712.17;313.63;;;;;;;;;;4997226;28;20304;-51
2023/01/09 09:36:24;;;;;;;683.47;297.57;;;;;;;;;;4991804;28;20215;-51
2023/01/09 09:38:53;;;;;;;840.83;393.03;;;;;;;;;;4997599;28;21269;-51
2023/01/09 09:47:04;;;;;;;756.40;334.00;;;;;;;;;;5016363;28;20230;-51
2023/01/09 09:49:46;;;;;;;723.27;312.10;;;;;;;;;;5021778;28;20971;-51
2023/01/09 09:52:31;;;;;;;813.50;357.17;;;;;;;;;;4998178;28;20231;-55
2023/01/09 09:55:01;;;;;;;805.40;351.17;;;;;;;;;;5011953;28;20267;-52
2023/01/09 09:57:32;;;;;;;764.50;348.97;;;;;;;;;;5004205;28;20278;-50
2023/01/09 09:59:58;;;;;;;736.30;319.53;;;;;;;;;;5002936;28;20653;-51
2023/01/09 10:02:27;;;;;;;866.07;384.07;;;;;;;;;;4966905;28;20338;-50
2023/01/09 10:05:00;;;;;;;715.73;306.83;;;;;;;;;;5011562;28;20207;-50
2023/01/09 10:07:33;;;;;;;859.67;392.73;;;;;;;;;;4995742;28;20376;-51
2023/01/09 10:10:04;;;;;;;919.00;411.53;;;;;;;;;;5000564;28;20661;-52
2023/01/09 10:12:40;;;;;;;797.90;363.27;;;;;;;;;;4998992;28;20312;-52
2023/01/09 10:15:13;;;;;;;786.03;354.53;;;;;;;;;;5010328;28;20627;-52
2023/01/09 10:17:49;;;;;;;795.87;373.77;;;;;;;;;;4995811;28;20233;-52
2023/01/09 10:20:24;;;;;;;815.33;366.23;;;;;;;;;;5000371;28;20757;-50
2023/01/09 10:23:14;;;;;;;889.17;427.63;;;;;;;;;;4986740;28;20218;-51
2023/01/09 10:25:59;;;;;;;700.00;314.80;;;;;;;;;;5016447;28;20276;-51
2023/01/09 10:28:26;;;;;;;711.67;320.13;;;;;;;;;;5009254;28;20305;-50
2023/01/09 10:30:52;;;;;;;758.10;359.20;;;;;;;;;;4995551;28;20271;-52
2023/01/09 10:33:19;;;;;;;871.67;405.77;;;;;;;;;;4999614;28;20211;-51
2023/01/09 10:35:54;;;;;;;742.03;336.50;;;;;;;;;;5014756;28;20290;-51
2023/01/09 10:38:40;;;;;;;795.77;365.37;;;;;;;;;;4983544;28;20230;-52
2023/01/09 10:41:26;;;;;;;825.33;382.53;;;;;;;;;;5010013;28;20553;-52
2023/01/09 10:44:02;;;;;;;741.83;327.80;;;;;;;;;;5004603;28;20183;-53
2023/01/09 10:46:39;;;;;;;772.47;357.67;;;;;;;;;;4993706;28;20349;-53
2023/01/09 10:49:14;;;;;;;823.23;383.23;;;;;;;;;;4997496;28;20227;-52
2023/01/09 10:51:50;;;;;;;813.73;374.07;;;;;;;;;;4996225;28;20215;-51
2023/01/09 10:54:22;;;;;;;845.73;404.37;;;;;;;;;;5008771;28;20306;-51
2023/01/09 10:57:02;;;;;;;916.00;426.03;;;;;;;;;;4988235;28;20264;-51
2023/01/09 10:59:29;;;;;;;865.87;400.00;;;;;;;;;;4992257;28;20218;-51
2023/01/09 11:01:56;;;;;;;787.47;358.63;;;;;;;;;;4996917;28;20223;-52
2023/01/09 11:04:34;;;;;;;759.23;335.40;;;;;;;;;;4988161;28;20762;-52
2023/01/09 11:07:21;;;;;;;773.97;344.43;;;;;;;;;;4994486;28;21036;-52
2023/01/09 11:10:01;;;;;;;822.37;388.10;;;;;;;;;;5014350;28;20237;-51
2023/01/09 11:12:31;;;;;;;906.73;422.10;;;;;;;;;;4971877;28;20303;-52
2023/01/09 11:15:18;;;;;;;829.67;382.97;;;;;;;;;;5005095;28;20227;-51
2023/01/09 11:17:44;;;;;;;835.43;376.80;;;;;;;;;;4996973;28;20804;-52
2023/01/09 11:20:24;;;;;;;844.77;380.93;;;;;;;;;;4999560;28;20299;-50
2023/01/09 11:22:55;;;;;;;880.73;403.07;;;;;;;;;;4983625;28;20221;-52
2023/01/09 11:25:26;;;;;;;916.30;408.43;;;;;;;;;;5001432;28;21086;-52
2023/01/09 11:28:10;;;;;;;810.37;360.23;;;;;;;;;;5000890;28;20353;-51
2023/01/09 11:30:40;;;;;;;816.73;367.67;;;;;;;;;;4992147;28;20251;-52
2023/01/09 11:33:16;;;;;;;865.60;383.03;;;;;;;;;;4999059;28;20737;-52
2023/01/09 11:36:18;;;;;;;860.17;391.00;;;;;;;;;;5000356;28;21336;-53
2023/01/09 11:38:51;;;;;;;837.03;373.40;;;;;;;;;;4993232;28;20211;-51
2023/01/09 11:41:36;;;;;;;820.37;366.03;;;;;;;;;;5005795;28;20216;-54
2023/01/09 11:44:03;;;;;;;862.87;389.83;;;;;;;;;;4992259;28;20401;-50
2023/01/09 11:46:38;;;;;;;725.00;321.03;;;;;;;;;;4996875;28;20242;-48
2023/01/09 11:49:18;;;;;;;847.63;393.53;;;;;;;;;;4994106;28;20912;-52
2023/01/09 11:51:45;;;;;;;833.70;376.93;;;;;;;;;;4995961;28;20224;-52
2023/01/09 11:54:11;;;;;;;872.73;401.40;;;;;;;;;;4982734;28;20724;-51
2023/01/09 11:56:37;;;;;;;926.70;420.47;;;;;;;;;;4995922;28;20542;-52
2023/01/09 11:59:19;;;;;;;733.93;325.67;;;;;;;;;;5000507;28;20299;-52
2023/01/09 12:01:52;;;;;;;778.43;344.37;;;;;;;;;;5002862;28;20990;-52
2023/01/09 12:04:18;;;;;;;800.93;366.83;;;;;;;;;;5001353;28;20616;-52
2023/01/09 12:06:47;;;;;;;791.57;355.77;;;;;;;;;;5005668;28;20204;-52
2023/01/09 12:09:43;;;;;;;896.67;404.70;;;;;;;;;;4980414;28;21752;-52
2023/01/09 12:12:17;;;;;;;808.00;363.03;;;;;;;;;;4936827;28;20551;-52
2023/01/09 12:15:02;;;;;;;781.93;346.40;;;;;;;;;;4989406;28;20444;-52
2023/01/09 12:17:39;;;;;;;791.23;356.13;;;;;;;;;;5002728;28;20219;-53
2023/01/09 12:20:09;;;;;;;764.70;345.07;;;;;;;;;;5004848;28;20858;-52
2023/01/09 12:22:43;;;;;;;871.57;395.60;;;;;;;;;;5015223;28;20349;-52
2023/01/09 12:25:18;;;;;;;745.63;330.10;;;;;;;;;;5018118;28;20227;-53
2023/01/09 12:27:53;;;;;;;707.80;317.00;;;;;;;;;;5014077;28;20210;-52
2023/01/09 12:30:46;;;;;;;731.87;338.63;;;;;;;;;;5006858;28;20903;-52
2023/01/09 12:33:12;;;;;;;858.80;382.20;;;;;;;;;;4964788;28;20235;-52
2023/01/09 12:36:08;;;;;;;807.80;370.53;;;;;;;;;;4993701;28;20320;-52
2023/01/09 12:38:47;;;;;;;830.83;376.37;;;;;;;;;;4975696;28;20219;-51
2023/01/09 12:41:35;;;;;;;756.20;342.40;;;;;;;;;;4989292;28;20406;-53
2023/01/09 12:44:04;;;;;;;780.20;345.53;;;;;;;;;;4994059;28;20219;-53
2023/01/09 12:46:47;;;;;;;789.80;346.60;;;;;;;;;;4991508;28;20856;-51
2023/01/09 12:49:19;;;;;;;700.47;315.00;;;;;;;;;;5028024;28;20207;-53
2023/01/09 12:51:54;;;;;;;741.70;321.37;;;;;;;;;;5028396;28;20285;-51
2023/01/09 12:54:23;;;;;;;796.33;344.67;;;;;;;;;;5024835;28;20284;-52
2023/01/09 12:56:56;;;;;;;647.17;281.03;;;;;;;;;;5020920;28;20693;-54
2023/01/09 12:59:37;;;;;;;701.00;305.07;;;;;;;;;;5020776;28;20243;-52
2023/01/09 13:02:09;;;;;;;731.00;323.33;;;;;;;;;;5026702;28;20475;-53
2023/01/09 13:04:53;;;;;;;711.03;308.43;;;;;;;;;;5028779;28;20446;-52
2023/01/09 13:07:22;;;;;;;800.37;346.57;;;;;;;;;;5013062;28;20241;-52
2023/01/09 13:09:55;;;;;;;755.83;326.33;;;;;;;;;;5007237;28;20712;-53
2023/01/09 13:12:25;;;;;;;797.70;355.30;;;;;;;;;;5011466;28;21648;-52
2023/01/09 13:14:54;;;;;;;777.40;346.53;;;;;;;;;;5012037;28;20577;-51
2023/01/09 13:17:24;;;;;;;812.17;347.90;;;;;;;;;;5016401;28;20724;-51
2023/01/09 13:19:52;;;;;;;777.23;339.67;;;;;;;;;;5023884;28;20621;-51
2023/01/09 13:22:19;;;;;;;834.53;375.73;;;;;;;;;;5022138;28;20195;-52
2023/01/09 13:25:09;;;;;;;781.67;340.80;;;;;;;;;;5007056;28;20221;-52
2023/01/09 13:27:38;;;;;;;823.57;369.97;;;;;;;;;;4996086;28;20261;-52
2023/01/09 13:30:11;;;;;;;838.27;383.20;;;;;;;;;;5002061;28;21378;-52
2023/01/09 13:32:43;;;;;;;773.87;348.13;;;;;;;;;;4991631;28;20227;-53
2023/01/09 13:35:12;;;;;;;848.90;377.40;;;;;;;;;;4995009;28;20269;-51
2023/01/09 13:37:38;;;;;;;764.17;336.43;;;;;;;;;;5005173;28;20184;-52
2023/01/09 13:40:06;;;;;;;889.37;408.30;;;;;;;;;;4978669;28;20267;-51
2023/01/09 13:42:38;;;;;;;828.93;363.77;;;;;;;;;;5003363;28;20257;-52
2023/01/09 13:45:17;;;;;;;811.87;370.87;;;;;;;;;;5001488;28;20212;-53
2023/01/09 13:47:44;;;;;;;769.07;342.57;;;;;;;;;;5006321;28;20376;-52
2023/01/09 13:50:13;;;;;;;850.63;389.60;;;;;;;;;;5001061;28;20977;-51
2023/01/09 13:52:40;;;;;;;825.27;371.90;;;;;;;;;;4994022;28;20208;-52
2023/01/09 13:55:15;;;;;;;790.33;364.47;;;;;;;;;;4984848;28;20357;-52
2023/01/09 13:57:43;;;;;;;815.77;372.20;;;;;;;;;;4993647;28;20281;-52
2023/01/09 14:00:16;;;;;;;835.90;379.33;;;;;;;;;;4996735;28;20867;-53
2023/01/09 14:02:45;;;;;;;891.20;399.83;;;;;;;;;;4994286;28;20413;-52
2023/01/09 14:05:13;;;;;;;901.67;406.87;;;;;;;;;;4975566;28;20329;-52
2023/01/09 14:07:44;;;;;;;835.90;380.47;;;;;;;;;;4985728;28;23113;-52
2023/01/09 14:10:37;;;;;;;814.50;372.00;;;;;;;;;;4998630;28;20187;-52
2023/01/09 14:13:12;;;;;;;764.60;333.23;;;;;;;;;;5003400;28;20243;-51
2023/01/09 14:15:48;;;;;;;885.07;398.10;;;;;;;;;;4988584;28;20215;-51
2023/01/09 14:18:14;;;;;;;788.63;348.43;;;;;;;;;;4990171;28;20318;-51
2023/01/09 14:20:43;;;;;;;786.40;356.27;;;;;;;;;;4998482;28;20215;-52
2023/01/09 14:23:29;;;;;;;800.33;360.57;;;;;;;;;;4991651;28;20215;-52
2023/01/09 14:25:56;;;;;;;757.30;353.83;;;;;;;;;;5016390;28;20272;-52